createdAt,value
2022-12-14T00:02:04.199Z,18.88
2022-12-14T00:05:06.791Z,20.17
2022-12-14T00:08:09.762Z,21.55
2022-12-14T00:11:14.266Z,20.52
2022-12-14T00:14:16.699Z,20.42
2022-12-14T00:17:18.833Z,19.83
2022-12-14T00:20:21.128Z,21.98
2022-12-14T00:23:23.339Z,20.10
2022-12-14T00:26:28.359Z,20.45
2022-12-14T00:29:32.160Z,20.80
2022-12-14T00:32:34.738Z,17.83
2022-12-14T00:35:36.913Z,19.67
2022-12-14T00:38:40.845Z,22.02
2022-12-14T00:41:43.418Z,19.17
2022-12-14T00:44:45.588Z,20.15
2022-12-14T00:47:47.827Z,19.88
2022-12-14T00:50:51.910Z,19.27
2022-12-14T00:53:55.064Z,19.90
2022-12-14T00:56:57.325Z,21.10
2022-12-14T00:59:59.530Z,20.45
2022-12-14T01:03:02.639Z,20.20
2022-12-14T01:06:05.041Z,19.10
2022-12-14T01:09:07.237Z,19.73
2022-12-14T01:12:09.553Z,22.67
2022-12-14T01:15:12.047Z,20.65
2022-12-14T01:18:14.402Z,21.77
2022-12-14T01:21:21.872Z,21.27
2022-12-14T01:24:24.039Z,21.13
2022-12-14T01:27:26.148Z,20.30
2022-12-14T01:30:28.286Z,20.70
2022-12-14T01:33:30.582Z,21.30
2022-12-14T01:36:35.011Z,19.70
2022-12-14T01:39:37.203Z,18.48
2022-12-14T01:42:39.460Z,19.48
2022-12-14T01:45:43.367Z,20.30
2022-12-14T01:48:47.531Z,19.85
2022-12-14T01:51:59.603Z,19.80
2022-12-14T01:55:14.334Z,21.63
2022-12-14T01:58:23.163Z,20.30
2022-12-14T02:01:25.546Z,20.45
2022-12-14T02:04:28.179Z,20.38
2022-12-14T02:07:31.610Z,22.45
2022-12-14T02:10:34.326Z,21.55
2022-12-14T02:13:40.828Z,18.73
2022-12-14T02:16:43.117Z,19.90
2022-12-14T02:19:47.148Z,21.48
2022-12-14T02:23:37.684Z,21.48
2022-12-14T02:27:04.671Z,21.65
2022-12-14T02:30:12.408Z,22.27
2022-12-14T02:33:34.545Z,20.90
2022-12-14T02:36:44.962Z,21.13
2022-12-14T02:40:08.412Z,21.83
2022-12-14T02:43:26.010Z,20.63
2022-12-14T02:46:30.061Z,21.73
2022-12-14T02:50:10.522Z,22.23
2022-12-14T02:56:23.333Z,20.20
2022-12-14T02:59:26.478Z,19.77
2022-12-14T03:02:29.849Z,19.52
2022-12-14T03:05:34.678Z,20.38
2022-12-14T03:08:37.226Z,22.40
2022-12-14T03:11:57.940Z,20.85
2022-12-14T03:15:02.077Z,20.85
2022-12-14T03:18:07.603Z,20.73
2022-12-14T03:21:12.411Z,20.45
2022-12-14T03:24:19.492Z,22.30
2022-12-14T03:27:30.332Z,21.30
2022-12-14T03:30:59.014Z,21.85
2022-12-14T03:34:00.292Z,22.08
2022-12-14T03:37:07.037Z,20.20
2022-12-14T03:40:13.210Z,21.02
2022-12-14T03:43:38.311Z,20.58
2022-12-14T03:46:55.719Z,23.20
2022-12-14T03:50:16.809Z,21.50
2022-12-14T03:53:33.661Z,19.52
2022-12-14T03:56:59.862Z,21.45
2022-12-14T04:00:09.737Z,19.73
2022-12-14T04:03:41.571Z,21.58
2022-12-14T04:06:57.491Z,22.10
2022-12-14T04:10:34.995Z,21.30
2022-12-14T04:14:00.848Z,21.33
2022-12-14T04:17:28.387Z,22.05
2022-12-14T04:20:41.307Z,22.08
2022-12-14T04:24:08.483Z,21.05
2022-12-14T04:27:19.842Z,22.50
2022-12-14T04:30:22.204Z,21.40
2022-12-14T04:33:43.484Z,22.27
2022-12-14T04:36:53.402Z,21.67
2022-12-14T04:40:33.483Z,22.38
2022-12-14T04:43:45.183Z,19.88
2022-12-14T04:46:53.705Z,19.52
2022-12-14T04:50:10.634Z,21.00
2022-12-14T04:53:18.115Z,20.00
2022-12-14T04:56:22.273Z,18.33
2022-12-14T04:59:25.218Z,19.90
2022-12-14T05:02:39.397Z,20.20
2022-12-14T05:05:47.457Z,21.08
2022-12-14T05:09:04.428Z,20.17
2022-12-14T05:12:38.486Z,21.33
2022-12-14T05:15:50.274Z,20.20
2022-12-14T05:18:52.562Z,18.95
2022-12-14T05:21:55.622Z,20.33
2022-12-14T05:24:58.158Z,19.63
2022-12-14T05:28:00.493Z,18.98
2022-12-14T05:31:02.680Z,18.02
2022-12-14T05:34:05.293Z,19.27
2022-12-14T05:37:10.456Z,21.55
2022-12-14T05:40:15.934Z,20.20
2022-12-14T05:43:18.163Z,20.85
2022-12-14T05:46:20.304Z,20.17
2022-12-14T05:49:22.554Z,19.48
2022-12-14T05:52:26.538Z,19.13
2022-12-14T05:55:28.721Z,20.02
2022-12-14T05:58:31.442Z,21.02
2022-12-14T06:01:33.786Z,20.23
2022-12-14T06:04:36.178Z,19.48
2022-12-14T06:07:38.332Z,17.70
2022-12-14T06:10:40.460Z,18.45
2022-12-14T06:13:43.430Z,19.70
2022-12-14T06:16:46.728Z,19.58
2022-12-14T06:19:49.932Z,19.33
2022-12-14T06:22:55.121Z,20.77
2022-12-14T06:25:57.741Z,19.63
2022-12-14T06:29:00.217Z,19.08
2022-12-14T06:32:02.389Z,20.20
2022-12-14T06:35:05.237Z,21.35
2022-12-14T06:38:07.926Z,18.42
2022-12-14T06:41:10.212Z,20.33
2022-12-14T06:44:14.923Z,20.20
2022-12-14T06:47:17.026Z,18.75
2022-12-14T06:50:19.212Z,20.77
2022-12-14T06:53:21.316Z,20.58
2022-12-14T06:56:25.606Z,19.85
2022-12-14T06:59:27.783Z,20.25
2022-12-14T07:02:30.134Z,19.63
2022-12-14T07:05:32.723Z,19.95
2022-12-14T07:08:37.771Z,18.90
2022-12-14T07:11:40.337Z,18.73
2022-12-14T07:14:42.797Z,17.65
2022-12-14T07:17:45.131Z,18.27
2022-12-14T07:21:11.000Z,17.95
2022-12-14T07:24:13.264Z,18.05
2022-12-14T07:27:18.441Z,17.38
2022-12-14T07:30:20.727Z,17.77
2022-12-14T07:33:23.333Z,18.65
2022-12-14T07:36:27.470Z,19.48
2022-12-14T07:39:29.805Z,17.10
2022-12-14T07:42:31.948Z,17.88
2022-12-14T07:45:35.526Z,17.02
2022-12-14T07:48:38.377Z,17.20
2022-12-14T07:51:42.248Z,17.90
2022-12-14T07:54:44.713Z,18.40
2022-12-14T07:57:47.000Z,18.73
2022-12-14T08:00:49.134Z,16.52
2022-12-14T08:03:57.563Z,17.80
2022-12-14T08:06:59.683Z,17.98
2022-12-14T08:10:01.910Z,16.75
2022-12-14T08:13:04.138Z,16.90
2022-12-14T08:16:09.808Z,17.15
2022-12-14T08:19:13.435Z,17.52
2022-12-14T08:22:15.548Z,17.85
2022-12-14T08:25:17.705Z,17.25
2022-12-14T08:28:20.044Z,17.63
2022-12-14T08:31:25.392Z,17.75
2022-12-14T08:34:27.576Z,16.33
2022-12-14T08:37:29.697Z,16.88
2022-12-14T08:40:35.574Z,17.00
2022-12-14T08:43:38.286Z,16.58
2022-12-14T08:46:40.427Z,17.77
2022-12-14T08:49:42.614Z,18.40
2022-12-14T08:52:48.381Z,17.02
2022-12-14T08:55:50.657Z,16.98
2022-12-14T08:58:53.717Z,18.02
2022-12-14T09:01:56.115Z,19.00
2022-12-14T09:04:58.373Z,16.67
2022-12-14T09:08:00.504Z,18.40
2022-12-14T09:11:04.780Z,19.08
2022-12-14T09:14:07.413Z,18.25
2022-12-14T09:17:09.649Z,18.00
2022-12-14T09:20:13.790Z,18.40
2022-12-14T09:23:15.922Z,17.73
2022-12-14T09:26:20.808Z,18.30
2022-12-14T09:29:22.951Z,17.77
2022-12-14T09:32:25.257Z,18.70
2022-12-14T09:35:27.536Z,19.52
2022-12-14T09:38:32.128Z,19.50
2022-12-14T09:41:34.344Z,19.33
2022-12-14T09:45:05.604Z,17.67
2022-12-14T09:48:26.728Z,17.70
2022-12-14T09:51:35.421Z,18.58
2022-12-14T09:54:39.462Z,19.40
2022-12-14T09:57:43.543Z,20.73
2022-12-14T10:01:35.817Z,20.60
2022-12-14T10:04:47.783Z,18.58
2022-12-14T10:08:31.308Z,19.95
2022-12-14T10:11:45.847Z,19.70
2022-12-14T10:15:02.077Z,19.40
2022-12-14T10:18:57.145Z,19.33
2022-12-14T10:22:12.749Z,17.60
2022-12-14T10:25:29.841Z,18.23
2022-12-14T10:28:41.059Z,18.95
2022-12-14T10:31:51.573Z,19.05
2022-12-14T10:34:54.018Z,20.05
2022-12-14T10:38:17.901Z,19.23
2022-12-14T10:41:40.497Z,18.58
2022-12-14T10:45:04.308Z,19.30
2022-12-14T10:48:37.415Z,16.83
2022-12-14T10:51:47.105Z,18.90
2022-12-14T10:55:00.840Z,19.90
2022-12-14T10:58:03.585Z,18.83
2022-12-14T11:01:11.933Z,17.90
2022-12-14T11:04:54.745Z,19.95
2022-12-14T11:07:57.236Z,18.17
2022-12-14T11:11:13.961Z,18.00
2022-12-14T11:14:22.464Z,18.80
2022-12-14T11:18:01.692Z,18.13
2022-12-14T11:21:07.055Z,18.77
2022-12-14T11:24:23.463Z,18.55
2022-12-14T11:27:25.801Z,18.10
2022-12-14T11:30:29.706Z,17.48
2022-12-14T11:33:49.946Z,17.67
2022-12-14T11:36:52.955Z,17.55
2022-12-14T11:40:04.110Z,18.55
2022-12-14T11:43:23.870Z,17.10
2022-12-14T11:46:59.067Z,17.98
2022-12-14T11:50:01.568Z,17.42
2022-12-14T11:53:11.258Z,16.10
2022-12-14T11:56:18.013Z,17.75
2022-12-14T11:59:20.257Z,17.10
2022-12-14T12:02:32.785Z,17.80
2022-12-14T12:05:40.897Z,18.30
2022-12-14T12:08:44.875Z,17.48
2022-12-14T12:11:49.245Z,16.77
2022-12-14T12:14:55.705Z,16.88
2022-12-14T12:18:24.760Z,16.08
2022-12-14T12:21:30.201Z,16.15
2022-12-14T12:25:08.185Z,16.27
2022-12-14T12:28:33.538Z,16.42
2022-12-14T12:31:45.503Z,16.38
2022-12-14T12:34:54.598Z,16.38
2022-12-14T12:38:01.407Z,16.42
2022-12-14T12:41:21.352Z,16.23
2022-12-14T12:44:49.816Z,15.25
2022-12-14T12:48:08.012Z,16.88
2022-12-14T12:51:19.080Z,15.52
2022-12-14T12:54:29.219Z,16.10
2022-12-14T12:57:45.127Z,17.20
2022-12-14T13:00:51.702Z,16.27
2022-12-14T13:03:58.615Z,17.27
2022-12-14T13:07:14.643Z,16.73
2022-12-14T13:10:32.177Z,17.98
2022-12-14T13:13:37.356Z,17.73
2022-12-14T13:16:40.172Z,16.55
2022-12-14T13:19:51.987Z,17.08
2022-12-14T13:22:57.367Z,16.20
2022-12-14T13:26:48.830Z,16.60
2022-12-14T13:29:54.482Z,16.88
2022-12-14T13:33:27.924Z,16.13
2022-12-14T13:37:14.360Z,16.90
2022-12-14T13:40:28.745Z,16.00
2022-12-14T13:43:48.888Z,17.20
2022-12-14T13:47:02.802Z,14.73
2022-12-14T13:53:36.363Z,15.13
2022-12-14T13:56:40.278Z,17.77
2022-12-14T13:59:48.588Z,17.40
2022-12-14T14:02:54.004Z,16.38
2022-12-14T14:06:08.422Z,18.27
2022-12-14T14:09:29.179Z,17.80
2022-12-14T14:12:37.255Z,17.02
2022-12-14T14:16:26.418Z,17.27
2022-12-14T14:19:24.063Z,16.48
2022-12-14T14:22:28.656Z,17.45
2022-12-14T14:25:33.901Z,17.63
2022-12-14T14:28:38.004Z,18.27
2022-12-14T14:31:49.337Z,17.73
2022-12-14T14:34:52.061Z,18.73
2022-12-14T14:38:02.603Z,16.63
2022-12-14T14:41:17.106Z,16.13
2022-12-14T14:44:26.130Z,15.95
2022-12-14T14:47:38.360Z,17.00
2022-12-14T14:50:43.070Z,16.95
2022-12-14T14:53:45.506Z,16.52
2022-12-14T14:56:53.411Z,17.67
2022-12-14T15:00:02.621Z,18.60
2022-12-14T15:03:12.541Z,18.27
2022-12-14T15:06:22.421Z,18.58
2022-12-14T15:09:58.270Z,18.90
2022-12-14T15:13:06.157Z,16.58
2022-12-14T15:16:33.451Z,17.63
2022-12-14T15:19:36.983Z,18.92
2022-12-14T15:22:43.396Z,19.58
2022-12-14T15:25:45.508Z,18.80
2022-12-14T15:28:53.745Z,19.67
2022-12-14T15:31:59.838Z,18.20
2022-12-14T15:35:07.032Z,19.10
2022-12-14T15:38:18.785Z,18.58
2022-12-14T15:41:29.823Z,18.30
2022-12-14T15:44:32.078Z,19.23
2022-12-14T15:47:36.885Z,19.50
2022-12-14T15:50:43.624Z,18.48
2022-12-14T15:53:54.729Z,19.05
2022-12-14T15:56:58.890Z,19.40
2022-12-14T16:00:01.760Z,19.35
2022-12-14T16:03:35.372Z,20.73
2022-12-14T16:06:42.433Z,20.85
2022-12-14T16:09:50.374Z,20.85
2022-12-14T16:12:59.628Z,20.90
2022-12-14T16:16:09.019Z,21.15
2022-12-14T16:19:27.943Z,21.63
2022-12-14T16:22:32.641Z,20.65
2022-12-14T16:25:36.591Z,20.92
2022-12-14T16:28:38.928Z,21.90
2022-12-14T16:31:41.217Z,21.65
2022-12-14T16:34:58.943Z,22.23
2022-12-14T16:38:08.517Z,21.60
2022-12-14T16:41:11.023Z,21.00
2022-12-14T16:44:29.446Z,22.75
2022-12-14T16:47:34.631Z,21.17
2022-12-14T16:54:04.398Z,21.58
2022-12-14T16:57:18.910Z,22.20
2022-12-14T17:00:29.993Z,22.42
2022-12-14T17:03:33.894Z,22.63
2022-12-14T17:06:56.434Z,22.05
2022-12-14T17:09:59.118Z,22.30
2022-12-14T17:13:03.547Z,20.45
2022-12-14T17:16:07.959Z,21.25
2022-12-14T17:19:23.166Z,19.60
2022-12-14T17:22:29.587Z,21.10
2022-12-14T17:25:32.681Z,22.17
2022-12-14T17:28:34.874Z,24.20
2022-12-14T17:31:37.173Z,23.52
2022-12-14T17:34:39.575Z,23.05
2022-12-14T17:37:41.865Z,22.38
2022-12-14T17:40:45.158Z,22.95
2022-12-14T17:43:53.695Z,22.15
2022-12-14T17:46:58.810Z,22.83
2022-12-14T17:50:01.934Z,22.13
2022-12-14T17:53:04.180Z,21.55
2022-12-14T17:56:06.680Z,22.52
2022-12-14T17:59:08.950Z,22.58
2022-12-14T18:02:33.800Z,22.67
2022-12-14T18:05:36.554Z,20.30
2022-12-14T18:08:39.271Z,22.90
2022-12-14T18:12:00.294Z,20.85
2022-12-14T18:15:03.686Z,21.88
2022-12-14T18:18:07.386Z,20.58
2022-12-14T18:21:21.381Z,21.00
2022-12-14T18:24:26.121Z,19.30
2022-12-14T18:27:31.444Z,20.02
2022-12-14T18:30:41.783Z,19.90
2022-12-14T18:33:48.443Z,20.35
2022-12-14T18:36:50.656Z,19.45
2022-12-14T18:39:52.808Z,18.80
2022-12-14T18:42:57.106Z,21.02
2022-12-14T18:46:00.409Z,20.55
2022-12-14T18:49:02.637Z,20.40
2022-12-14T18:52:04.862Z,20.25
2022-12-14T18:55:19.373Z,18.65
2022-12-14T18:58:30.709Z,20.50
2022-12-14T19:01:32.969Z,18.55
2022-12-14T19:04:35.207Z,18.77
2022-12-14T19:07:37.605Z,19.42
2022-12-14T19:10:46.557Z,19.45
2022-12-14T19:13:49.026Z,20.23
2022-12-14T19:16:51.290Z,18.83
2022-12-14T19:19:53.559Z,19.27
2022-12-14T19:22:55.841Z,19.63
2022-12-14T19:26:01.797Z,19.38
2022-12-14T19:29:04.109Z,19.85
2022-12-14T19:32:06.332Z,19.40
2022-12-14T19:35:09.261Z,17.17
2022-12-14T19:38:16.460Z,19.13
2022-12-14T19:41:20.749Z,19.25
2022-12-14T19:44:23.060Z,17.42
2022-12-14T19:47:25.809Z,20.15
2022-12-14T19:50:28.172Z,19.48
2022-12-14T19:53:34.429Z,16.75
2022-12-14T19:56:36.920Z,19.60
2022-12-14T19:59:39.167Z,19.25
2022-12-14T20:02:41.542Z,17.05
2022-12-14T20:05:55.054Z,16.98
2022-12-14T20:08:59.140Z,18.27
2022-12-14T20:12:01.527Z,18.80
2022-12-14T20:15:04.273Z,16.65
2022-12-14T20:18:07.498Z,15.88
2022-12-14T20:21:11.469Z,16.85
2022-12-14T20:24:13.890Z,16.40
2022-12-14T20:27:16.498Z,17.63
2022-12-14T20:30:18.799Z,17.65
2022-12-14T20:33:25.127Z,18.00
2022-12-14T20:36:30.558Z,18.70
2022-12-14T20:39:32.945Z,17.75
2022-12-14T20:42:35.156Z,17.15
2022-12-14T20:45:42.447Z,16.63
2022-12-14T20:48:47.692Z,17.73
2022-12-14T20:51:49.945Z,18.35
2022-12-14T20:54:52.070Z,17.10
2022-12-14T20:57:54.263Z,17.67
2022-12-14T21:00:56.964Z,18.30
2022-12-14T21:04:01.251Z,18.27
2022-12-14T21:07:03.555Z,17.95
2022-12-14T21:10:09.164Z,16.27
2022-12-14T21:13:11.326Z,15.65
2022-12-14T21:16:13.533Z,17.17
2022-12-14T21:19:18.647Z,18.02
2022-12-14T21:22:23.447Z,18.83
2022-12-14T21:25:25.953Z,18.23
2022-12-14T21:28:32.146Z,17.02
2022-12-14T21:31:35.774Z,17.92
2022-12-14T21:34:39.888Z,16.90
2022-12-14T21:37:42.107Z,18.02
2022-12-14T21:41:11.656Z,19.38
2022-12-14T21:44:14.029Z,17.50
2022-12-14T21:47:19.164Z,19.65
2022-12-14T21:50:21.386Z,19.85
2022-12-14T21:53:23.637Z,19.83
2022-12-14T21:56:48.086Z,18.40
2022-12-14T21:59:50.291Z,18.27
2022-12-14T22:02:52.707Z,20.45
2022-12-14T22:05:54.960Z,19.27
2022-12-14T22:08:58.744Z,20.33
2022-12-14T22:12:01.083Z,19.60
2022-12-14T22:15:03.318Z,18.10
2022-12-14T22:18:05.760Z,19.27
2022-12-14T22:21:08.009Z,20.95
2022-12-14T22:24:10.922Z,19.85
2022-12-14T22:27:13.335Z,21.17
2022-12-14T22:30:15.567Z,18.02
2022-12-14T22:33:17.663Z,20.30
2022-12-14T22:36:19.796Z,19.85
2022-12-14T22:39:21.929Z,20.60
2022-12-14T22:42:24.128Z,19.25
2022-12-14T22:45:26.982Z,21.67
2022-12-14T22:48:35.737Z,20.35
2022-12-14T22:51:37.947Z,22.33
2022-12-14T22:54:40.302Z,22.02
2022-12-14T22:57:46.172Z,22.58
2022-12-14T23:00:49.728Z,21.55
2022-12-14T23:03:53.476Z,22.70
2022-12-14T23:06:55.921Z,21.38
2022-12-14T23:10:16.662Z,21.75
2022-12-14T23:13:37.214Z,21.27
2022-12-14T23:16:58.019Z,19.70
2022-12-14T23:20:18.826Z,20.90
2022-12-14T23:23:39.580Z,21.83
2022-12-14T23:27:05.650Z,21.40
2022-12-14T23:30:30.053Z,23.23
2022-12-14T23:33:51.030Z,23.48
2022-12-14T23:37:16.349Z,23.83
2022-12-14T23:40:40.690Z,21.95
2022-12-14T23:44:01.191Z,21.90
2022-12-14T23:47:21.747Z,23.00
2022-12-14T23:50:42.578Z,22.15
2022-12-14T23:54:03.426Z,21.80
2022-12-14T23:57:26.045Z,23.17
